sensor_id;sensor_type;location;lat;lon;timestamp;pressure;altitude;pressure_sealevel;temperature;humidity
62333;BME280;48624;49.812;8.562;2023-04-02T00:01:45;99720.28;;;8.81;100.00
62333;BME280;48624;49.812;8.562;2023-04-02T00:04:12;99732.91;;;8.89;100.00
62333;BME280;48624;49.812;8.562;2023-04-02T00:06:41;99731.06;;;8.78;100.00
62333;BME280;48624;49.812;8.562;2023-04-02T00:11:43;99734.13;;;8.72;100.00
62333;BME280;48624;49.812;8.562;2023-04-02T00:14:27;99739.56;;;8.44;100.00
62333;BME280;48624;49.812;8.562;2023-04-02T00:16:55;99754.00;;;8.65;100.00
62333;BME280;48624;49.812;8.562;2023-04-02T00:19:47;99745.91;;;8.55;100.00
62333;BME280;48624;49.812;8.562;2023-04-02T00:22:19;99743.09;;;8.82;100.00
62333;BME280;48624;49.812;8.562;2023-04-02T00:24:49;99747.38;;;8.59;100.00
62333;BME280;48624;49.812;8.562;2023-04-02T00:27:15;99763.69;;;8.77;100.00
62333;BME280;48624;49.812;8.562;2023-04-02T00:29:46;99755.50;;;8.69;100.00
62333;BME280;48624;49.812;8.562;2023-04-02T00:32:17;99756.66;;;8.65;100.00
62333;BME280;48624;49.812;8.562;2023-04-02T00:34:45;99756.97;;;8.60;100.00
62333;BME280;48624;49.812;8.562;2023-04-02T00:37:16;99760.66;;;8.57;100.00
62333;BME280;48624;49.812;8.562;2023-04-02T00:39:42;99764.25;;;8.56;100.00
62333;BME280;48624;49.812;8.562;2023-04-02T00:42:10;99756.97;;;8.47;100.00
62333;BME280;48624;49.812;8.562;2023-04-02T00:44:39;99765.22;;;8.55;100.00
62333;BME280;48624;49.812;8.562;2023-04-02T00:47:14;99758.03;;;8.57;100.00
62333;BME280;48624;49.812;8.562;2023-04-02T00:49:42;99766.38;;;8.64;100.00
62333;BME280;48624;49.812;8.562;2023-04-02T00:52:21;99767.91;;;8.80;100.00
62333;BME280;48624;49.812;8.562;2023-04-02T00:54:50;99767.59;;;8.84;100.00
62333;BME280;48624;49.812;8.562;2023-04-02T00:57:20;99766.28;;;8.90;100.00
62333;BME280;48624;49.812;8.562;2023-04-02T01:02:30;99761.97;;;8.89;100.00
62333;BME280;48624;49.812;8.562;2023-04-02T01:07:43;99768.06;;;8.65;100.00
62333;BME280;48624;49.812;8.562;2023-04-02T01:13:11;99775.78;;;8.55;100.00
62333;BME280;48624;49.812;8.562;2023-04-02T01:16:10;99778.31;;;8.57;100.00
62333;BME280;48624;49.812;8.562;2023-04-02T01:18:36;99775.34;;;8.74;100.00
62333;BME280;48624;49.812;8.562;2023-04-02T01:23:52;99781.69;;;8.59;100.00
62333;BME280;48624;49.812;8.562;2023-04-02T01:29:13;99787.91;;;8.32;100.00
62333;BME280;48624;49.812;8.562;2023-04-02T01:31:40;99789.50;;;8.60;100.00
62333;BME280;48624;49.812;8.562;2023-04-02T01:34:08;99796.16;;;8.40;100.00
62333;BME280;48624;49.812;8.562;2023-04-02T01:39:20;99794.88;;;8.33;100.00
62333;BME280;48624;49.812;8.562;2023-04-02T01:42:00;99792.88;;;8.50;100.00
62333;BME280;48624;49.812;8.562;2023-04-02T01:44:36;99798.91;;;8.52;100.00
62333;BME280;48624;49.812;8.562;2023-04-02T01:47:10;99801.22;;;8.56;100.00
62333;BME280;48624;49.812;8.562;2023-04-02T01:49:36;99810.41;;;8.51;100.00
62333;BME280;48624;49.812;8.562;2023-04-02T01:52:04;99813.69;;;8.54;100.00
62333;BME280;48624;49.812;8.562;2023-04-02T01:54:32;99806.06;;;8.50;100.00
62333;BME280;48624;49.812;8.562;2023-04-02T01:56:57;99820.66;;;8.68;100.00
62333;BME280;48624;49.812;8.562;2023-04-02T01:59:24;99819.72;;;8.56;100.00
62333;BME280;48624;49.812;8.562;2023-04-02T02:01:59;99822.63;;;8.39;100.00
62333;BME280;48624;49.812;8.562;2023-04-02T02:04:25;99815.03;;;8.47;100.00
62333;BME280;48624;49.812;8.562;2023-04-02T02:06:51;99819.50;;;8.46;100.00
62333;BME280;48624;49.812;8.562;2023-04-02T02:09:20;99821.84;;;8.51;100.00
62333;BME280;48624;49.812;8.562;2023-04-02T02:11:50;99825.13;;;8.55;100.00
62333;BME280;48624;49.812;8.562;2023-04-02T02:14:21;99831.31;;;8.67;100.00
62333;BME280;48624;49.812;8.562;2023-04-02T02:16:48;99825.22;;;8.66;100.00
62333;BME280;48624;49.812;8.562;2023-04-02T02:22:14;99831.75;;;8.60;100.00
62333;BME280;48624;49.812;8.562;2023-04-02T02:24:42;99836.59;;;8.41;100.00
62333;BME280;48624;49.812;8.562;2023-04-02T02:29:36;99838.91;;;8.45;100.00
62333;BME280;48624;49.812;8.562;2023-04-02T02:32:03;99848.56;;;8.59;100.00
62333;BME280;48624;49.812;8.562;2023-04-02T02:34:35;99850.56;;;8.69;100.00
62333;BME280;48624;49.812;8.562;2023-04-02T02:37:05;99850.56;;;8.56;100.00
62333;BME280;48624;49.812;8.562;2023-04-02T02:39:41;99858.22;;;8.33;100.00
62333;BME280;48624;49.812;8.562;2023-04-02T02:42:18;99865.00;;;8.50;100.00
62333;BME280;48624;49.812;8.562;2023-04-02T02:44:47;99860.13;;;8.31;100.00
62333;BME280;48624;49.812;8.562;2023-04-02T02:47:15;99863.81;;;8.28;100.00
62333;BME280;48624;49.812;8.562;2023-04-02T02:49:45;99858.53;;;8.28;100.00
62333;BME280;48624;49.812;8.562;2023-04-02T02:52:25;99871.31;;;8.35;100.00
62333;BME280;48624;49.812;8.562;2023-04-02T02:54:55;99873.00;;;8.23;100.00
62333;BME280;48624;49.812;8.562;2023-04-02T02:57:26;99874.50;;;8.27;100.00
62333;BME280;48624;49.812;8.562;2023-04-02T02:59:56;99867.09;;;8.32;100.00
62333;BME280;48624;49.812;8.562;2023-04-02T03:02:25;99869.09;;;8.41;100.00
62333;BME280;48624;49.812;8.562;2023-04-02T03:04:52;99877.78;;;8.30;100.00
62333;BME280;48624;49.812;8.562;2023-04-02T03:07:20;99880.50;;;8.29;100.00
62333;BME280;48624;49.812;8.562;2023-04-02T03:12:44;99890.09;;;8.30;100.00
62333;BME280;48624;49.812;8.562;2023-04-02T03:17:59;99892.53;;;8.33;100.00
62333;BME280;48624;49.812;8.562;2023-04-02T03:25:42;99906.47;;;8.22;100.00
62333;BME280;48624;49.812;8.562;2023-04-02T03:28:16;99913.31;;;8.12;100.00
62333;BME280;48624;49.812;8.562;2023-04-02T03:30:47;99915.03;;;8.39;100.00
62333;BME280;48624;49.812;8.562;2023-04-02T03:33:23;99920.09;;;8.29;100.00
62333;BME280;48624;49.812;8.562;2023-04-02T03:38:42;99922.38;;;8.21;100.00
62333;BME280;48624;49.812;8.562;2023-04-02T03:43:44;99935.19;;;8.27;100.00
62333;BME280;48624;49.812;8.562;2023-04-02T03:46:28;99934.31;;;8.26;100.00
62333;BME280;48624;49.812;8.562;2023-04-02T03:49:01;99932.09;;;8.20;100.00
62333;BME280;48624;49.812;8.562;2023-04-02T03:51:39;99941.41;;;8.39;100.00
62333;BME280;48624;49.812;8.562;2023-04-02T03:54:12;99945.00;;;8.38;100.00
62333;BME280;48624;49.812;8.562;2023-04-02T03:56:40;99946.91;;;8.36;100.00
62333;BME280;48624;49.812;8.562;2023-04-02T04:04:29;99954.63;;;8.26;100.00
62333;BME280;48624;49.812;8.562;2023-04-02T04:06:56;99966.13;;;8.38;100.00
62333;BME280;48624;49.812;8.562;2023-04-02T04:09:31;99974.25;;;8.35;100.00
62333;BME280;48624;49.812;8.562;2023-04-02T04:14:42;99975.31;;;8.32;100.00
62333;BME280;48624;49.812;8.562;2023-04-02T04:17:18;99981.06;;;8.52;100.00
62333;BME280;48624;49.812;8.562;2023-04-02T04:20:16;99981.34;;;8.47;100.00
62333;BME280;48624;49.812;8.562;2023-04-02T04:22:47;99977.88;;;8.46;100.00
62333;BME280;48624;49.812;8.562;2023-04-02T04:25:20;99989.09;;;8.50;100.00
62333;BME280;48624;49.812;8.562;2023-04-02T04:30:33;99994.19;;;8.53;100.00
62333;BME280;48624;49.812;8.562;2023-04-02T04:33:13;100005.28;;;8.31;100.00
62333;BME280;48624;49.812;8.562;2023-04-02T04:35:49;100004.47;;;8.43;100.00
62333;BME280;48624;49.812;8.562;2023-04-02T04:38:19;100007.38;;;8.53;100.00
62333;BME280;48624;49.812;8.562;2023-04-02T04:40:54;100005.78;;;8.51;100.00
62333;BME280;48624;49.812;8.562;2023-04-02T04:46:12;100019.03;;;8.64;100.00
62333;BME280;48624;49.812;8.562;2023-04-02T04:48:51;100022.63;;;8.35;100.00
62333;BME280;48624;49.812;8.562;2023-04-02T04:51:32;100022.19;;;8.56;100.00
62333;BME280;48624;49.812;8.562;2023-04-02T04:54:01;100027.66;;;8.53;100.00
62333;BME280;48624;49.812;8.562;2023-04-02T04:56:29;100034.75;;;8.52;100.00
62333;BME280;48624;49.812;8.562;2023-04-02T04:59:02;100034.34;;;8.58;100.00
62333;BME280;48624;49.812;8.562;2023-04-02T05:08:29;100037.88;;;8.44;100.00
62333;BME280;48624;49.812;8.562;2023-04-02T05:11:19;100041.81;;;8.52;100.00
62333;BME280;48624;49.812;8.562;2023-04-02T05:14:28;100050.19;;;8.44;100.00
62333;BME280;48624;49.812;8.562;2023-04-02T05:23:50;100071.53;;;8.68;100.00
62333;BME280;48624;49.812;8.562;2023-04-02T05:26:50;100080.16;;;8.57;100.00
62333;BME280;48624;49.812;8.562;2023-04-02T05:29:38;100073.75;;;8.62;100.00
62333;BME280;48624;49.812;8.562;2023-04-02T05:32:53;100078.47;;;8.56;100.00
62333;BME280;48624;49.812;8.562;2023-04-02T05:35:32;100081.75;;;8.60;100.00
62333;BME280;48624;49.812;8.562;2023-04-02T05:44:53;100089.28;;;8.66;100.00
62333;BME280;48624;49.812;8.562;2023-04-02T05:48:45;100096.91;;;8.71;100.00
62333;BME280;48624;49.812;8.562;2023-04-02T05:51:37;100104.66;;;8.87;100.00
62333;BME280;48624;49.812;8.562;2023-04-02T05:54:06;100098.50;;;8.86;100.00
62333;BME280;48624;49.812;8.562;2023-04-02T06:21:21;100144.38;;;8.85;100.00
62333;BME280;48624;49.812;8.562;2023-04-02T06:24:12;100161.00;;;8.87;100.00
62333;BME280;48624;49.812;8.562;2023-04-02T06:27:11;100156.19;;;9.07;100.00
62333;BME280;48624;49.812;8.562;2023-04-02T06:29:51;100158.81;;;9.07;100.00
62333;BME280;48624;49.812;8.562;2023-04-02T06:32:33;100167.78;;;9.05;100.00
62333;BME280;48624;49.812;8.562;2023-04-02T06:35:04;100171.28;;;9.05;100.00
62333;BME280;48624;49.812;8.562;2023-04-02T06:37:44;100172.06;;;9.33;100.00
62333;BME280;48624;49.812;8.562;2023-04-02T06:40:56;100177.03;;;9.12;100.00
62333;BME280;48624;49.812;8.562;2023-04-02T06:43:40;100174.50;;;9.23;100.00
62333;BME280;48624;49.812;8.562;2023-04-02T06:46:33;100190.91;;;9.41;100.00
62333;BME280;48624;49.812;8.562;2023-04-02T06:49:49;100200.47;;;9.04;100.00
62333;BME280;48624;49.812;8.562;2023-04-02T06:52:53;100199.13;;;9.11;100.00
62333;BME280;48624;49.812;8.562;2023-04-02T06:55:51;100205.97;;;9.13;100.00
62333;BME280;48624;49.812;8.562;2023-04-02T06:58:49;100211.88;;;9.44;100.00
62333;BME280;48624;49.812;8.562;2023-04-02T07:05:20;100228.38;;;9.35;100.00
62333;BME280;48624;49.812;8.562;2023-04-02T07:07:48;100226.38;;;9.52;100.00
62333;BME280;48624;49.812;8.562;2023-04-02T07:10:22;100237.56;;;9.42;100.00
62333;BME280;48624;49.812;8.562;2023-04-02T07:13:16;100240.25;;;9.68;100.00
62333;BME280;48624;49.812;8.562;2023-04-02T07:15:51;100244.59;;;9.69;100.00
62333;BME280;48624;49.812;8.562;2023-04-02T07:18:52;100253.81;;;9.77;100.00
62333;BME280;48624;49.812;8.562;2023-04-02T07:21:23;100256.56;;;9.88;100.00
62333;BME280;48624;49.812;8.562;2023-04-02T07:27:03;100261.31;;;9.70;100.00
62333;BME280;48624;49.812;8.562;2023-04-02T07:29:31;100272.03;;;9.94;100.00
62333;BME280;48624;49.812;8.562;2023-04-02T07:32:00;100269.63;;;9.91;100.00
62333;BME280;48624;49.812;8.562;2023-04-02T07:34:26;100277.03;;;9.99;100.00
62333;BME280;48624;49.812;8.562;2023-04-02T07:37:29;100288.00;;;9.93;100.00
62333;BME280;48624;49.812;8.562;2023-04-02T07:39:55;100296.81;;;10.19;100.00
62333;BME280;48624;49.812;8.562;2023-04-02T07:42:32;100287.81;;;10.22;100.00
62333;BME280;48624;49.812;8.562;2023-04-02T07:45:14;100298.00;;;10.54;100.00
62333;BME280;48624;49.812;8.562;2023-04-02T07:48:26;100300.53;;;10.17;100.00
62333;BME280;48624;49.812;8.562;2023-04-02T07:51:01;100305.84;;;10.55;100.00
62333;BME280;48624;49.812;8.562;2023-04-02T07:53:59;100308.91;;;10.36;99.81
62333;BME280;48624;49.812;8.562;2023-04-02T07:57:10;100321.72;;;10.43;99.65
62333;BME280;48624;49.812;8.562;2023-04-02T07:59:54;100324.06;;;10.60;99.33
62333;BME280;48624;49.812;8.562;2023-04-02T08:02:23;100327.97;;;10.67;99.46
62333;BME280;48624;49.812;8.562;2023-04-02T08:05:24;100324.50;;;10.54;98.36
62333;BME280;48624;49.812;8.562;2023-04-02T08:07:56;100334.22;;;10.53;98.52
62333;BME280;48624;49.812;8.562;2023-04-02T08:10:28;100335.50;;;10.61;98.81
62333;BME280;48624;49.812;8.562;2023-04-02T08:12:53;100342.19;;;10.53;98.71
62333;BME280;48624;49.812;8.562;2023-04-02T08:15:37;100339.94;;;10.47;97.97
62333;BME280;48624;49.812;8.562;2023-04-02T08:18:21;100349.66;;;10.86;98.75
62333;BME280;48624;49.812;8.562;2023-04-02T08:20:54;100358.06;;;10.66;99.57
62333;BME280;48624;49.812;8.562;2023-04-02T08:23:57;100367.31;;;9.67;100.00
62333;BME280;48624;49.812;8.562;2023-04-02T08:29:17;100391.00;;;8.84;100.00
62333;BME280;48624;49.812;8.562;2023-04-02T08:32:17;100382.47;;;9.23;100.00
62333;BME280;48624;49.812;8.562;2023-04-02T08:34:48;100399.91;;;9.40;99.84
62333;BME280;48624;49.812;8.562;2023-04-02T08:37:40;100403.97;;;9.31;100.00
62333;BME280;48624;49.812;8.562;2023-04-02T08:40:06;100406.00;;;8.55;100.00
62333;BME280;48624;49.812;8.562;2023-04-02T08:43:04;100406.69;;;8.42;100.00
62333;BME280;48624;49.812;8.562;2023-04-02T08:48:34;100421.41;;;8.46;100.00
62333;BME280;48624;49.812;8.562;2023-04-02T08:51:00;100432.63;;;7.89;100.00
62333;BME280;48624;49.812;8.562;2023-04-02T08:53:30;100432.97;;;7.99;100.00
62333;BME280;48624;49.812;8.562;2023-04-02T08:56:16;100449.22;;;8.07;100.00
62333;BME280;48624;49.812;8.562;2023-04-02T08:58:49;100446.56;;;8.07;100.00
62333;BME280;48624;49.812;8.562;2023-04-02T09:03:50;100459.28;;;7.68;100.00
62333;BME280;48624;49.812;8.562;2023-04-02T09:06:19;100463.03;;;7.64;100.00
62333;BME280;48624;49.812;8.562;2023-04-02T09:08:46;100463.25;;;7.43;100.00
62333;BME280;48624;49.812;8.562;2023-04-02T09:11:40;100477.88;;;7.33;100.00
62333;BME280;48624;49.812;8.562;2023-04-02T09:14:23;100485.38;;;7.41;100.00
62333;BME280;48624;49.812;8.562;2023-04-02T09:16:54;100492.69;;;7.35;100.00
62333;BME280;48624;49.812;8.562;2023-04-02T09:19:43;100495.03;;;7.24;100.00
62333;BME280;48624;49.812;8.562;2023-04-02T09:22:23;100495.56;;;6.97;100.00
62333;BME280;48624;49.812;8.562;2023-04-02T09:24:53;100509.13;;;7.57;100.00
62333;BME280;48624;49.812;8.562;2023-04-02T09:27:22;100505.81;;;7.69;100.00
62333;BME280;48624;49.812;8.562;2023-04-02T09:29:56;100519.03;;;7.35;100.00
62333;BME280;48624;49.812;8.562;2023-04-02T09:32:38;100526.03;;;7.19;100.00
62333;BME280;48624;49.812;8.562;2023-04-02T09:35:17;100521.00;;;7.14;100.00
62333;BME280;48624;49.812;8.562;2023-04-02T09:37:43;100537.25;;;6.89;100.00
62333;BME280;48624;49.812;8.562;2023-04-02T09:40:28;100544.31;;;6.88;100.00
62333;BME280;48624;49.812;8.562;2023-04-02T09:43:29;100544.94;;;7.61;100.00
62333;BME280;48624;49.812;8.562;2023-04-02T09:46:00;100546.41;;;7.33;100.00
62333;BME280;48624;49.812;8.562;2023-04-02T09:48:37;100551.13;;;7.60;100.00
62333;BME280;48624;49.812;8.562;2023-04-02T09:53:39;100565.56;;;7.53;100.00
62333;BME280;48624;49.812;8.562;2023-04-02T09:56:07;100559.28;;;7.21;100.00
62333;BME280;48624;49.812;8.562;2023-04-02T09:58:32;100564.25;;;7.28;100.00
62333;BME280;48624;49.812;8.562;2023-04-02T10:00:59;100568.84;;;7.24;100.00
62333;BME280;48624;49.812;8.562;2023-04-02T10:03:25;100566.72;;;7.64;100.00
62333;BME280;48624;49.812;8.562;2023-04-02T10:06:12;100577.03;;;7.35;100.00
62333;BME280;48624;49.812;8.562;2023-04-02T10:08:41;100579.06;;;7.30;100.00
62333;BME280;48624;49.812;8.562;2023-04-02T10:11:17;100603.78;;;7.28;100.00
62333;BME280;48624;49.812;8.562;2023-04-02T10:13:59;100599.91;;;7.17;100.00
62333;BME280;48624;49.812;8.562;2023-04-02T10:16:55;100602.84;;;7.29;100.00
62333;BME280;48624;49.812;8.562;2023-04-02T10:21:57;100614.88;;;7.17;100.00
62333;BME280;48624;49.812;8.562;2023-04-02T10:24:26;100616.31;;;7.40;100.00
62333;BME280;48624;49.812;8.562;2023-04-02T10:29:55;100621.53;;;7.06;100.00
62333;BME280;48624;49.812;8.562;2023-04-02T10:40:26;100639.34;;;7.01;100.00
62333;BME280;48624;49.812;8.562;2023-04-02T10:43:21;100640.78;;;7.60;100.00
62333;BME280;48624;49.812;8.562;2023-04-02T10:46:05;100649.81;;;7.56;100.00
62333;BME280;48624;49.812;8.562;2023-04-02T10:54:06;100652.00;;;7.81;100.00
62333;BME280;48624;49.812;8.562;2023-04-02T10:56:37;100667.78;;;7.65;100.00
62333;BME280;48624;49.812;8.562;2023-04-02T10:59:13;100665.66;;;7.72;100.00
62333;BME280;48624;49.812;8.562;2023-04-02T11:01:42;100669.69;;;7.79;100.00
62333;BME280;48624;49.812;8.562;2023-04-02T11:04:23;100666.22;;;7.95;100.00
62333;BME280;48624;49.812;8.562;2023-04-02T11:06:57;100682.13;;;8.27;100.00
62333;BME280;48624;49.812;8.562;2023-04-02T11:09:30;100690.00;;;7.77;100.00
62333;BME280;48624;49.812;8.562;2023-04-02T11:11:58;100693.69;;;7.39;100.00
62333;BME280;48624;49.812;8.562;2023-04-02T11:14:30;100700.84;;;7.37;100.00
62333;BME280;48624;49.812;8.562;2023-04-02T11:16:57;100701.44;;;7.60;100.00
62333;BME280;48624;49.812;8.562;2023-04-02T11:21:54;100714.13;;;7.87;100.00
62333;BME280;48624;49.812;8.562;2023-04-02T11:32:28;100724.22;;;7.78;97.47
62333;BME280;48624;49.812;8.562;2023-04-02T11:37:40;100736.09;;;7.70;99.50
62333;BME280;48624;49.812;8.562;2023-04-02T11:53:00;100762.06;;;7.42;96.43
62333;BME280;48624;49.812;8.562;2023-04-02T11:55:29;100766.88;;;7.69;94.98
62333;BME280;48624;49.812;8.562;2023-04-02T11:58:26;100774.66;;;7.55;96.03
62333;BME280;48624;49.812;8.562;2023-04-02T12:01:12;100768.69;;;7.51;95.87
62333;BME280;48624;49.812;8.562;2023-04-02T12:09:41;100792.63;;;7.82;89.94
62333;BME280;48624;49.812;8.562;2023-04-02T12:12:35;100792.41;;;7.69;91.56
62333;BME280;48624;49.812;8.562;2023-04-02T12:15:33;100800.31;;;7.51;92.43
62333;BME280;48624;49.812;8.562;2023-04-02T12:18:10;100803.06;;;8.36;88.18
62333;BME280;48624;49.812;8.562;2023-04-02T12:20:37;100803.81;;;7.69;92.20
62333;BME280;48624;49.812;8.562;2023-04-02T12:23:04;100815.06;;;7.73;92.57
62333;BME280;48624;49.812;8.562;2023-04-02T12:25:32;100811.78;;;8.21;87.26
62333;BME280;48624;49.812;8.562;2023-04-02T12:30:33;100818.47;;;7.75;89.01
62333;BME280;48624;49.812;8.562;2023-04-02T12:35:44;100827.31;;;7.74;88.62
62333;BME280;48624;49.812;8.562;2023-04-02T12:38:44;100827.94;;;7.79;89.46
62333;BME280;48624;49.812;8.562;2023-04-02T12:41:25;100845.88;;;7.35;91.15
62333;BME280;48624;49.812;8.562;2023-04-02T12:43:59;100846.47;;;8.30;85.72
62333;BME280;48624;49.812;8.562;2023-04-02T12:46:26;100851.81;;;7.76;86.62
62333;BME280;48624;49.812;8.562;2023-04-02T12:48:53;100853.97;;;7.68;88.95
62333;BME280;48624;49.812;8.562;2023-04-02T12:51:19;100851.56;;;7.63;88.92
62333;BME280;48624;49.812;8.562;2023-04-02T12:53:49;100842.97;;;7.95;88.35
62333;BME280;48624;49.812;8.562;2023-04-02T12:56:21;100841.63;;;7.50;90.53
62333;BME280;48624;49.812;8.562;2023-04-02T12:58:55;100853.75;;;8.25;85.61
62333;BME280;48624;49.812;8.562;2023-04-02T13:01:25;100851.06;;;8.27;85.80
62333;BME280;48624;49.812;8.562;2023-04-02T13:04:07;100855.34;;;7.94;89.27
62333;BME280;48624;49.812;8.562;2023-04-02T13:06:33;100854.09;;;7.84;89.63
62333;BME280;48624;49.812;8.562;2023-04-02T13:09:01;100854.84;;;7.68;87.79
62333;BME280;48624;49.812;8.562;2023-04-02T13:11:40;100852.13;;;7.52;87.39
62333;BME280;48624;49.812;8.562;2023-04-02T13:14:15;100860.16;;;7.49;87.78
62333;BME280;48624;49.812;8.562;2023-04-02T13:16:42;100867.94;;;7.52;86.56
62333;BME280;48624;49.812;8.562;2023-04-02T13:19:24;100872.78;;;7.42;86.18
62333;BME280;48624;49.812;8.562;2023-04-02T13:21:50;100868.03;;;7.31;88.57
62333;BME280;48624;49.812;8.562;2023-04-02T13:24:22;100879.00;;;7.03;90.38
62333;BME280;48624;49.812;8.562;2023-04-02T13:26:50;100889.47;;;7.24;88.48
62333;BME280;48624;49.812;8.562;2023-04-02T13:29:33;100874.44;;;7.45;88.48
62333;BME280;48624;49.812;8.562;2023-04-02T13:32:01;100890.31;;;7.05;87.39
62333;BME280;48624;49.812;8.562;2023-04-02T13:34:28;100895.13;;;7.53;87.37
62333;BME280;48624;49.812;8.562;2023-04-02T13:36:54;100890.25;;;7.45;88.24
62333;BME280;48624;49.812;8.562;2023-04-02T13:39:19;100895.66;;;7.42;89.83
62333;BME280;48624;49.812;8.562;2023-04-02T13:41:51;100899.47;;;6.98;90.06
62333;BME280;48624;49.812;8.562;2023-04-02T13:44:28;100904.28;;;6.88;90.07
62333;BME280;48624;49.812;8.562;2023-04-02T13:46:55;100901.28;;;6.96;91.04
62333;BME280;48624;49.812;8.562;2023-04-02T13:49:21;100915.91;;;7.22;87.60
62333;BME280;48624;49.812;8.562;2023-04-02T13:51:49;100916.19;;;7.16;87.49
62333;BME280;48624;49.812;8.562;2023-04-02T13:54:23;100900.59;;;7.30;87.91
62333;BME280;48624;49.812;8.562;2023-04-02T13:56:50;100917.25;;;7.31;86.20
62333;BME280;48624;49.812;8.562;2023-04-02T13:59:16;100917.50;;;7.63;85.15
62333;BME280;48624;49.812;8.562;2023-04-02T14:01:43;100922.53;;;7.68;85.09
62333;BME280;48624;49.812;8.562;2023-04-02T14:04:14;100930.13;;;7.18;84.21
62333;BME280;48624;49.812;8.562;2023-04-02T14:07:06;100935.13;;;7.24;84.62
62333;BME280;48624;49.812;8.562;2023-04-02T14:10:02;100940.38;;;6.86;86.99
62333;BME280;48624;49.812;8.562;2023-04-02T14:12:58;100939.06;;;7.34;84.71
62333;BME280;48624;49.812;8.562;2023-04-02T14:18:43;100956.75;;;6.92;84.71
62333;BME280;48624;49.812;8.562;2023-04-02T14:24:30;100964.72;;;6.70;83.94
62333;BME280;48624;49.812;8.562;2023-04-02T14:27:36;100971.16;;;7.04;83.65
62333;BME280;48624;49.812;8.562;2023-04-02T14:30:21;100965.75;;;7.07;83.44
62333;BME280;48624;49.812;8.562;2023-04-02T14:33:18;100964.75;;;6.49;85.10
62333;BME280;48624;49.812;8.562;2023-04-02T14:36:03;100971.66;;;7.13;83.20
62333;BME280;48624;49.812;8.562;2023-04-02T14:38:46;100969.03;;;7.13;84.42
62333;BME280;48624;49.812;8.562;2023-04-02T14:44:00;100991.25;;;7.07;83.68
62333;BME280;48624;49.812;8.562;2023-04-02T14:46:30;100979.63;;;7.11;84.20
62333;BME280;48624;49.812;8.562;2023-04-02T14:52:08;101002.59;;;6.88;82.32
62333;BME280;48624;49.812;8.562;2023-04-02T14:54:38;101001.31;;;6.97;80.76
62333;BME280;48624;49.812;8.562;2023-04-02T15:00:20;101012.59;;;7.01;81.92
62333;BME280;48624;49.812;8.562;2023-04-02T15:03:02;101015.38;;;6.34;83.66
62333;BME280;48624;49.812;8.562;2023-04-02T15:11:15;101021.38;;;7.20;81.17
62333;BME280;48624;49.812;8.562;2023-04-02T15:14:18;101023.41;;;6.31;84.39
62333;BME280;48624;49.812;8.562;2023-04-02T15:16:45;101033.97;;;6.29;84.70
62333;BME280;48624;49.812;8.562;2023-04-02T15:19:13;101035.66;;;6.52;83.09
62333;BME280;48624;49.812;8.562;2023-04-02T15:24:17;101038.81;;;6.18;84.86
62333;BME280;48624;49.812;8.562;2023-04-02T15:26:58;101036.88;;;6.66;81.80
62333;BME280;48624;49.812;8.562;2023-04-02T15:37:29;101043.03;;;6.00;84.56
62333;BME280;48624;49.812;8.562;2023-04-02T15:42:36;101058.41;;;6.33;82.91
62333;BME280;48624;49.812;8.562;2023-04-02T15:45:14;101051.09;;;6.39;81.57
62333;BME280;48624;49.812;8.562;2023-04-02T15:51:15;101070.09;;;5.79;83.74
62333;BME280;48624;49.812;8.562;2023-04-02T15:54:15;101081.28;;;6.08;80.93
62333;BME280;48624;49.812;8.562;2023-04-02T16:03:19;101091.69;;;6.11;80.71
62333;BME280;48624;49.812;8.562;2023-04-02T16:08:25;101093.78;;;6.25;80.61
62333;BME280;48624;49.812;8.562;2023-04-02T16:10:53;101096.50;;;6.46;80.51
62333;BME280;48624;49.812;8.562;2023-04-02T16:13:36;101096.72;;;6.40;78.23
62333;BME280;48624;49.812;8.562;2023-04-02T16:18:57;101120.25;;;6.21;78.65
62333;BME280;48624;49.812;8.562;2023-04-02T16:21:37;101120.63;;;6.11;78.78
62333;BME280;48624;49.812;8.562;2023-04-02T16:24:10;101120.09;;;6.03;78.46
62333;BME280;48624;49.812;8.562;2023-04-02T16:32:51;101140.53;;;5.95;78.30
62333;BME280;48624;49.812;8.562;2023-04-02T16:35:39;101142.19;;;5.97;76.64
62333;BME280;48624;49.812;8.562;2023-04-02T16:41:19;101148.50;;;6.39;76.64
62333;BME280;48624;49.812;8.562;2023-04-02T16:47:21;101166.75;;;6.22;77.21
62333;BME280;48624;49.812;8.562;2023-04-02T16:52:37;101174.31;;;6.06;77.04
62333;BME280;48624;49.812;8.562;2023-04-02T17:01:08;101201.38;;;5.84;75.63
62333;BME280;48624;49.812;8.562;2023-04-02T17:09:20;101225.22;;;5.79;76.63
62333;BME280;48624;49.812;8.562;2023-04-02T17:11:49;101221.34;;;5.90;75.24
62333;BME280;48624;49.812;8.562;2023-04-02T17:14:29;101232.94;;;5.84;74.90
62333;BME280;48624;49.812;8.562;2023-04-02T17:17:00;101231.34;;;5.80;74.91
62333;BME280;48624;49.812;8.562;2023-04-02T17:19:27;101239.81;;;5.63;74.39
62333;BME280;48624;49.812;8.562;2023-04-02T17:21:57;101243.31;;;5.89;73.95
62333;BME280;48624;49.812;8.562;2023-04-02T17:24:28;101249.59;;;5.85;74.34
62333;BME280;48624;49.812;8.562;2023-04-02T17:27:10;101249.69;;;5.81;74.12
62333;BME280;48624;49.812;8.562;2023-04-02T17:32:36;101256.41;;;5.90;72.27
62333;BME280;48624;49.812;8.562;2023-04-02T17:43:04;101274.28;;;5.53;73.52
62333;BME280;48624;49.812;8.562;2023-04-02T17:45:52;101277.19;;;5.46;72.64
62333;BME280;48624;49.812;8.562;2023-04-02T17:48:37;101290.44;;;5.43;72.83
62333;BME280;48624;49.812;8.562;2023-04-02T17:51:41;101289.56;;;5.42;72.57
62333;BME280;48624;49.812;8.562;2023-04-02T17:57:51;101300.13;;;5.67;70.64
62333;BME280;48624;49.812;8.562;2023-04-02T18:03:44;101314.16;;;5.12;73.35
62333;BME280;48624;49.812;8.562;2023-04-02T18:06:31;101318.22;;;5.50;72.20
62333;BME280;48624;49.812;8.562;2023-04-02T18:14:26;101331.66;;;5.67;70.54
62333;BME280;48624;49.812;8.562;2023-04-02T18:17:02;101338.13;;;5.84;70.27